createdAt,value
2022-09-06T00:00:00.039Z,55.84
2022-09-06T00:02:33.899Z,58.49
2022-09-06T00:05:00.537Z,57.66
2022-09-06T00:07:27.103Z,57.94
2022-09-06T00:09:53.742Z,57.90
2022-09-06T00:12:20.277Z,57.56
2022-09-06T00:14:46.845Z,58.77
2022-09-06T00:17:13.447Z,59.53
2022-09-06T00:19:39.982Z,60.46
2022-09-06T00:22:06.851Z,60.14
2022-09-06T00:24:33.664Z,60.36
2022-09-06T00:27:00.303Z,60.19
2022-09-06T00:29:26.866Z,62.08
2022-09-06T00:31:53.611Z,69.67
2022-09-06T00:34:20.047Z,70.96
2022-09-06T00:36:46.749Z,63.30
2022-09-06T00:39:13.387Z,59.76
2022-09-06T00:41:40.027Z,55.78
2022-09-06T00:44:06.760Z,54.91
2022-09-06T00:46:33.565Z,56.31
2022-09-06T00:49:08.876Z,55.40
2022-09-06T00:51:35.477Z,57.82
2022-09-06T00:54:04.103Z,57.55
2022-09-06T00:56:31.823Z,59.79
2022-09-06T00:58:59.932Z,59.21
2022-09-06T01:01:26.768Z,58.00
2022-09-06T01:03:53.516Z,58.26
2022-09-06T01:06:24.358Z,59.19
2022-09-06T01:09:13.577Z,60.26
2022-09-06T01:12:26.703Z,60.49
2022-09-06T01:15:09.836Z,63.54
2022-09-06T01:17:45.988Z,73.13
2022-09-06T01:20:38.841Z,68.07
2022-09-06T01:23:52.214Z,61.52
2022-09-06T01:26:37.043Z,53.89
2022-09-06T01:29:28.870Z,52.60
2022-09-06T01:32:36.978Z,52.87
2022-09-06T01:35:46.522Z,54.36
2022-09-06T01:38:13.081Z,53.90
2022-09-06T01:40:39.633Z,53.84
2022-09-06T01:43:11.062Z,53.65
2022-09-06T01:46:09.131Z,54.42
2022-09-06T01:49:03.699Z,55.49
2022-09-06T01:51:56.272Z,55.46
2022-09-06T01:54:44.485Z,57.15
2022-09-06T01:57:51.262Z,59.02
2022-09-06T02:00:19.640Z,58.91
2022-09-06T02:03:29.490Z,58.45
2022-09-06T02:06:22.007Z,59.60
2022-09-06T02:08:52.808Z,59.31
2022-09-06T02:11:19.416Z,61.55
2022-09-06T02:13:52.290Z,65.52
2022-09-06T02:16:21.847Z,71.98
2022-09-06T02:19:14.027Z,70.13
2022-09-06T02:21:44.708Z,65.78
2022-09-06T02:24:29.523Z,62.90
2022-09-06T02:26:56.159Z,59.95
2022-09-06T02:29:23.715Z,58.30
2022-09-06T02:32:21.485Z,55.91
2022-09-06T02:34:52.689Z,54.76
2022-09-06T02:37:19.364Z,55.34
2022-09-06T02:39:45.955Z,55.04
2022-09-06T02:42:14.087Z,54.85
2022-09-06T02:44:40.577Z,54.94
2022-09-06T02:47:07.346Z,55.26
2022-09-06T02:49:34.187Z,56.82
2022-09-06T02:52:00.934Z,57.65
2022-09-06T02:54:27.460Z,57.24
2022-09-06T02:56:54.231Z,60.19
2022-09-06T02:59:20.632Z,59.79
2022-09-06T03:01:47.166Z,59.73
2022-09-06T03:04:13.651Z,60.00
2022-09-06T03:06:40.134Z,62.24
2022-09-06T03:09:06.808Z,68.76
2022-09-06T03:11:33.203Z,73.50
2022-09-06T03:13:59.736Z,68.47
2022-09-06T03:16:26.429Z,63.61
2022-09-06T03:18:53.012Z,58.74
2022-09-06T03:21:19.647Z,55.86
2022-09-06T03:23:46.181Z,56.32
2022-09-06T03:26:12.819Z,57.32
2022-09-06T03:28:39.394Z,58.29
2022-09-06T03:31:06.069Z,57.58
2022-09-06T03:33:32.687Z,57.22
2022-09-06T03:36:00.803Z,59.26
2022-09-06T03:38:28.496Z,58.68
2022-09-06T03:40:55.232Z,58.92
2022-09-06T03:43:23.303Z,58.60
2022-09-06T03:45:52.180Z,59.16
2022-09-06T03:48:20.144Z,59.98
2022-09-06T03:50:50.155Z,59.53
2022-09-06T03:53:17.089Z,64.10
2022-09-06T03:55:47.852Z,68.99
2022-09-06T03:58:15.485Z,71.06
2022-09-06T04:00:42.151Z,61.31
2022-09-06T04:03:08.857Z,57.04
2022-09-06T04:05:35.289Z,56.02
2022-09-06T04:08:02.448Z,57.26
2022-09-06T04:10:29.075Z,57.81
2022-09-06T04:12:55.609Z,58.12
2022-09-06T04:15:22.246Z,59.02
2022-09-06T04:17:48.781Z,60.94
2022-09-06T04:20:15.524Z,65.86
2022-09-06T04:22:42.158Z,67.18
2022-09-06T04:25:10.126Z,59.88
2022-09-06T04:27:36.689Z,55.51
2022-09-06T04:30:04.423Z,54.86
2022-09-06T04:32:32.186Z,55.52
2022-09-06T04:34:58.720Z,55.93
2022-09-06T04:37:25.358Z,56.53
2022-09-06T04:39:52.304Z,55.69
2022-09-06T04:42:19.143Z,55.81
2022-09-06T04:44:45.576Z,56.63
2022-09-06T04:47:14.709Z,58.10
2022-09-06T04:49:41.924Z,57.12
2022-09-06T04:52:08.559Z,56.81
2022-09-06T04:54:35.297Z,56.80
2022-09-06T04:57:02.141Z,57.35
2022-09-06T04:59:28.703Z,57.44
2022-09-06T05:01:57.110Z,57.94
2022-09-06T05:04:24.509Z,58.34
2022-09-06T05:07:04.319Z,58.11
2022-09-06T05:09:36.417Z,58.16
2022-09-06T05:12:03.464Z,58.35
2022-09-06T05:14:30.510Z,58.18
2022-09-06T05:16:57.173Z,58.12
2022-09-06T05:19:24.300Z,58.09
2022-09-06T05:21:51.680Z,59.08
2022-09-06T05:24:18.598Z,58.96
2022-09-06T05:26:45.234Z,58.67
2022-09-06T05:29:11.878Z,56.90
2022-09-06T05:31:38.584Z,54.38
2022-09-06T05:34:05.137Z,51.83
2022-09-06T05:36:31.879Z,49.35
2022-09-06T05:38:58.926Z,47.09
2022-09-06T05:41:25.489Z,45.15
2022-09-06T05:43:52.157Z,43.07
2022-09-06T05:46:19.211Z,41.57
2022-09-06T05:48:57.532Z,40.69
2022-09-06T05:51:24.030Z,38.59
2022-09-06T05:53:50.833Z,37.13
2022-09-06T05:56:18.622Z,37.14
2022-09-06T05:58:45.231Z,35.71
2022-09-06T06:01:17.118Z,34.25
2022-09-06T06:03:51.206Z,34.23
2022-09-06T06:06:18.791Z,34.00
2022-09-06T06:08:45.809Z,33.49
2022-09-06T06:11:12.487Z,32.63
2022-09-06T06:13:39.397Z,32.06
2022-09-06T06:16:07.150Z,30.86
2022-09-06T06:18:34.505Z,31.33
2022-09-06T06:21:15.011Z,30.04
2022-09-06T06:23:44.398Z,29.99
2022-09-06T06:26:12.031Z,29.41
2022-09-06T06:28:39.014Z,28.42
2022-09-06T06:31:06.978Z,28.04
2022-09-06T06:33:33.885Z,27.24
2022-09-06T06:36:14.037Z,26.94
2022-09-06T06:38:43.032Z,26.43
2022-09-06T06:41:12.024Z,27.10
2022-09-06T06:43:38.863Z,26.53
2022-09-06T06:46:16.146Z,26.78
2022-09-06T06:48:44.118Z,26.81
2022-09-06T06:51:12.702Z,26.70
2022-09-06T06:53:39.370Z,25.97
2022-09-06T06:56:24.512Z,25.89
2022-09-06T06:58:53.445Z,25.60
2022-09-06T07:01:21.584Z,26.42
2022-09-06T07:03:48.720Z,25.67
2022-09-06T07:06:15.767Z,25.48
2022-09-06T07:08:42.711Z,25.84
2022-09-06T07:11:11.096Z,25.61
2022-09-06T07:13:37.930Z,27.42
2022-09-06T07:16:23.410Z,27.16
2022-09-06T07:18:52.004Z,27.11
2022-09-06T07:21:41.682Z,28.32
2022-09-06T07:24:09.370Z,29.48
2022-09-06T07:26:37.721Z,29.56
2022-09-06T07:29:05.368Z,28.29
2022-09-06T07:34:19.972Z,29.31
2022-09-06T07:36:47.500Z,28.19
2022-09-06T07:39:14.143Z,28.36
2022-09-06T07:41:41.091Z,29.20
2022-09-06T07:44:08.847Z,30.03
2022-09-06T07:46:36.861Z,30.75
2022-09-06T07:49:04.923Z,30.84
2022-09-06T07:51:32.132Z,31.61
2022-09-06T07:54:19.306Z,31.16
2022-09-06T07:56:45.475Z,31.52
2022-09-06T07:59:12.219Z,32.42
2022-09-06T08:01:39.359Z,33.65
2022-09-06T08:04:08.404Z,35.68
2022-09-06T08:09:24.670Z,38.09
2022-09-06T08:11:52.154Z,38.57
2022-09-06T08:14:19.308Z,39.31
2022-09-06T08:16:46.118Z,39.93
2022-09-06T08:19:12.655Z,40.71
2022-09-06T08:21:39.395Z,41.39
2022-09-06T08:24:07.665Z,41.07
2022-09-06T08:26:35.735Z,41.67
2022-09-06T08:29:06.165Z,42.11
2022-09-06T08:31:33.481Z,41.87
2022-09-06T08:34:00.666Z,41.87
2022-09-06T08:36:29.247Z,42.21
2022-09-06T08:38:59.776Z,41.79
2022-09-06T08:41:33.174Z,42.24
2022-09-06T08:47:06.076Z,42.38
2022-09-06T08:49:36.665Z,42.77
2022-09-06T08:52:25.868Z,42.39
2022-09-06T08:55:33.391Z,41.97
2022-09-06T08:58:45.165Z,41.21
2022-09-06T09:01:18.683Z,41.37
2022-09-06T09:03:45.323Z,41.83
2022-09-06T09:06:12.034Z,42.22
2022-09-06T09:08:47.581Z,42.38
2022-09-06T09:11:19.544Z,42.19
2022-09-06T09:14:10.192Z,41.53
2022-09-06T09:16:36.862Z,41.31
2022-09-06T09:19:05.056Z,40.63
2022-09-06T09:21:34.394Z,39.47
2022-09-06T09:24:06.675Z,39.55
2022-09-06T09:26:49.065Z,39.66
2022-09-06T09:29:16.585Z,39.67
2022-09-06T09:31:53.300Z,40.21
2022-09-06T09:34:33.025Z,40.11
2022-09-06T09:40:54.446Z,39.17
2022-09-06T09:43:26.401Z,39.34
2022-09-06T09:46:14.912Z,40.35
2022-09-06T09:49:02.179Z,39.49
2022-09-06T09:51:29.458Z,39.58
2022-09-06T09:54:01.508Z,39.78
2022-09-06T09:56:48.834Z,39.63
2022-09-06T09:59:42.419Z,40.03
2022-09-06T10:02:23.884Z,40.56
2022-09-06T10:04:53.955Z,39.41
2022-09-06T10:07:22.666Z,38.76
2022-09-06T10:10:00.698Z,38.52
2022-09-06T10:12:31.097Z,38.43
2022-09-06T10:14:57.933Z,37.62
2022-09-06T10:17:58.069Z,37.78
2022-09-06T10:20:46.368Z,37.29
2022-09-06T10:26:53.712Z,36.53
2022-09-06T10:29:45.232Z,36.97
2022-09-06T10:32:31.279Z,36.62
2022-09-06T10:35:20.525Z,36.72
2022-09-06T10:38:07.096Z,36.10
2022-09-06T10:40:47.057Z,36.28
2022-09-06T10:43:18.352Z,35.60
2022-09-06T10:45:59.061Z,36.39
2022-09-06T10:48:31.936Z,36.96
2022-09-06T10:51:29.914Z,36.65
2022-09-06T10:54:11.809Z,35.59
2022-09-06T10:56:42.949Z,35.33
2022-09-06T11:02:29.130Z,36.03
2022-09-06T11:10:41.448Z,35.91
2022-09-06T11:13:19.246Z,34.86
2022-09-06T11:16:05.432Z,34.87
2022-09-06T11:18:45.653Z,33.39
2022-09-06T11:21:44.670Z,34.57
2022-09-06T11:24:14.854Z,34.98
2022-09-06T11:27:04.034Z,33.87
2022-09-06T11:29:30.623Z,34.20
2022-09-06T11:32:16.198Z,34.27
2022-09-06T11:34:51.394Z,33.28
2022-09-06T11:37:39.056Z,34.18
2022-09-06T11:40:29.117Z,33.96
2022-09-06T11:42:58.093Z,32.83
2022-09-06T11:45:47.063Z,32.57
2022-09-06T11:48:34.568Z,31.45
2022-09-06T11:51:10.061Z,32.54
2022-09-06T11:53:48.501Z,32.69
2022-09-06T11:56:29.443Z,33.23
2022-09-06T11:59:01.215Z,33.36
2022-09-06T12:01:27.610Z,32.42
2022-09-06T12:04:05.948Z,33.13
2022-09-06T12:07:03.150Z,32.91
2022-09-06T12:09:32.855Z,32.59
2022-09-06T12:11:59.771Z,32.93
2022-09-06T12:14:46.422Z,33.05
2022-09-06T12:17:12.959Z,32.90
2022-09-06T12:20:07.726Z,33.08
2022-09-06T12:22:37.257Z,31.20
2022-09-06T12:25:20.492Z,31.29
2022-09-06T12:27:57.361Z,32.44
2022-09-06T12:30:41.456Z,32.34
2022-09-06T12:33:16.013Z,31.85
2022-09-06T12:35:58.173Z,31.06
2022-09-06T12:38:25.294Z,32.35
2022-09-06T12:40:55.914Z,32.46
2022-09-06T12:43:22.549Z,31.59
2022-09-06T12:45:50.785Z,31.71
2022-09-06T12:48:34.901Z,31.84
2022-09-06T12:51:18.896Z,30.92
2022-09-06T12:53:56.638Z,30.83
2022-09-06T12:56:24.562Z,30.12
2022-09-06T12:58:51.046Z,30.38
2022-09-06T13:01:28.646Z,30.28
2022-09-06T13:04:54.070Z,30.63
2022-09-06T13:07:20.560Z,31.45
2022-09-06T13:09:48.623Z,31.32
2022-09-06T13:12:34.909Z,31.30
2022-09-06T13:15:11.192Z,30.93
2022-09-06T13:17:38.328Z,30.71
2022-09-06T13:20:26.629Z,31.16
2022-09-06T13:22:53.814Z,31.70
2022-09-06T13:25:21.022Z,31.38
2022-09-06T13:27:55.999Z,30.75
2022-09-06T13:30:41.598Z,30.34
2022-09-06T13:33:22.323Z,29.83
2022-09-06T13:35:50.844Z,30.41
2022-09-06T13:38:42.663Z,30.89
2022-09-06T13:41:32.245Z,31.08
2022-09-06T13:44:26.157Z,30.66
2022-09-06T13:46:54.531Z,30.43
2022-09-06T13:49:23.185Z,31.34
2022-09-06T13:51:51.192Z,31.60
2022-09-06T13:54:17.894Z,31.85
2022-09-06T13:56:44.486Z,31.05
2022-09-06T13:59:11.527Z,30.40
2022-09-06T14:01:39.802Z,30.34
2022-09-06T14:04:06.643Z,30.41
2022-09-06T14:06:36.887Z,30.79
2022-09-06T14:09:07.349Z,31.27
2022-09-06T14:11:35.316Z,30.27
2022-09-06T14:14:01.948Z,30.82
2022-09-06T14:16:29.507Z,30.95
2022-09-06T14:18:55.987Z,30.68
2022-09-06T14:21:22.568Z,30.39
2022-09-06T14:23:50.654Z,30.56
2022-09-06T14:26:18.403Z,30.74
2022-09-06T14:28:45.143Z,31.67
2022-09-06T14:31:15.933Z,31.52
2022-09-06T14:33:42.923Z,31.34
2022-09-06T14:36:15.430Z,31.50
2022-09-06T14:38:43.877Z,31.79
2022-09-06T14:41:13.366Z,32.05
2022-09-06T14:43:42.171Z,32.19
2022-09-06T14:46:11.977Z,32.44
2022-09-06T14:48:42.146Z,33.04
2022-09-06T14:51:17.255Z,32.91
2022-09-06T14:53:44.237Z,32.58
2022-09-06T14:56:11.434Z,33.12
2022-09-06T14:58:38.988Z,33.09
2022-09-06T15:01:12.462Z,32.75
2022-09-06T15:03:41.099Z,32.95
2022-09-06T15:06:08.012Z,32.90
2022-09-06T15:08:34.855Z,33.05
2022-09-06T15:11:01.695Z,32.80
2022-09-06T15:13:28.339Z,33.40
2022-09-06T15:15:55.238Z,33.71
2022-09-06T15:18:22.222Z,33.71
2022-09-06T15:20:49.095Z,33.54
2022-09-06T15:23:24.927Z,33.11
2022-09-06T15:26:02.517Z,33.38
2022-09-06T15:28:29.043Z,33.73
2022-09-06T15:30:55.940Z,34.01
2022-09-06T15:33:22.591Z,34.06
2022-09-06T15:35:54.690Z,34.40
2022-09-06T15:38:21.327Z,34.66
2022-09-06T15:40:47.861Z,34.24
2022-09-06T15:43:14.737Z,33.98
2022-09-06T15:45:49.251Z,34.22
2022-09-06T15:48:16.711Z,34.41
2022-09-06T15:50:51.177Z,34.73
2022-09-06T15:53:19.171Z,34.99
2022-09-06T15:55:58.117Z,35.18
2022-09-06T15:58:26.166Z,35.41
2022-09-06T16:01:00.673Z,35.31
2022-09-06T16:03:27.533Z,35.55
2022-09-06T16:08:40.464Z,36.40
2022-09-06T16:11:08.984Z,36.31
2022-09-06T16:13:36.094Z,36.32
2022-09-06T16:16:05.668Z,36.62
2022-09-06T16:18:33.567Z,36.97
2022-09-06T16:21:08.191Z,38.60
2022-09-06T16:23:38.206Z,39.00
2022-09-06T16:26:05.189Z,39.87
2022-09-06T16:28:33.735Z,41.18
2022-09-06T16:31:05.661Z,41.02
2022-09-06T16:33:33.764Z,41.03
2022-09-06T16:36:04.427Z,42.24
2022-09-06T16:38:31.853Z,41.70
2022-09-06T16:41:28.185Z,41.66
2022-09-06T16:43:54.926Z,41.46
2022-09-06T16:46:23.550Z,41.80
2022-09-06T16:48:55.606Z,42.02
2022-09-06T16:51:24.154Z,41.78
2022-09-06T16:53:51.611Z,41.86
2022-09-06T16:56:20.704Z,42.43
2022-09-06T16:58:55.006Z,42.21
2022-09-06T17:01:22.411Z,42.76
2022-09-06T17:03:49.423Z,42.67
2022-09-06T17:06:16.297Z,42.98
2022-09-06T17:08:42.905Z,42.91
2022-09-06T17:11:14.967Z,43.07
2022-09-06T17:13:43.445Z,43.60
2022-09-06T17:16:29.105Z,44.75
2022-09-06T17:18:55.616Z,44.55
2022-09-06T17:21:23.428Z,44.67
2022-09-06T17:23:50.783Z,45.91
2022-09-06T17:26:20.059Z,46.42
2022-09-06T17:28:47.463Z,46.80
2022-09-06T17:31:14.324Z,46.65
2022-09-06T17:33:40.923Z,46.35
2022-09-06T17:36:11.236Z,46.54
2022-09-06T17:38:42.277Z,46.70
2022-09-06T17:41:21.351Z,47.42
2022-09-06T17:43:48.248Z,47.58
2022-09-06T17:46:14.833Z,47.44
2022-09-06T17:48:42.752Z,48.09
2022-09-06T17:51:10.311Z,48.44
2022-09-06T17:53:37.387Z,48.87
2022-09-06T17:56:05.432Z,48.98
2022-09-06T17:58:32.065Z,49.26
2022-09-06T18:01:04.116Z,49.63
2022-09-06T18:03:31.381Z,49.63
2022-09-06T18:06:06.958Z,50.01
2022-09-06T18:08:37.183Z,50.79
2022-09-06T18:11:16.220Z,50.91
2022-09-06T18:13:43.720Z,50.61
2022-09-06T18:16:11.013Z,50.81
2022-09-06T18:18:37.930Z,51.23
2022-09-06T18:21:06.511Z,51.80
2022-09-06T18:23:33.559Z,51.87
2022-09-06T18:26:06.342Z,52.16
2022-09-06T18:28:34.857Z,53.14
2022-09-06T18:31:06.786Z,53.31
2022-09-06T18:33:34.240Z,52.88
2022-09-06T18:36:00.778Z,52.88
2022-09-06T18:38:27.531Z,53.31
2022-09-06T18:41:01.192Z,53.28
2022-09-06T18:43:30.431Z,54.25
2022-09-06T18:46:03.180Z,54.28
2022-09-06T18:48:32.211Z,53.86
2022-09-06T18:51:06.874Z,54.99
2022-09-06T18:53:34.675Z,55.50
2022-09-06T18:56:01.723Z,55.48
2022-09-06T18:58:28.484Z,55.77
2022-09-06T19:01:02.634Z,55.57
2022-09-06T19:03:30.646Z,55.92
2022-09-06T19:06:15.513Z,56.51
2022-09-06T19:08:42.457Z,56.38
2022-09-06T19:11:11.464Z,56.63
2022-09-06T19:13:39.660Z,56.42
2022-09-06T19:16:06.751Z,56.39
2022-09-06T19:18:34.017Z,56.61
2022-09-06T19:21:06.399Z,56.53
2022-09-06T19:23:35.589Z,57.02
2022-09-06T19:26:19.017Z,56.94
2022-09-06T19:28:56.006Z,57.16
2022-09-06T19:31:24.131Z,57.11
2022-09-06T19:33:51.009Z,57.23
2022-09-06T19:36:18.468Z,57.76
2022-09-06T19:41:38.061Z,58.00
2022-09-06T19:44:07.801Z,58.04
2022-09-06T19:46:36.714Z,58.30
2022-09-06T19:49:04.317Z,58.25
2022-09-06T19:51:32.535Z,58.31
2022-09-06T19:54:01.826Z,58.58
2022-09-06T19:56:32.161Z,59.23
2022-09-06T19:59:02.688Z,59.33
2022-09-06T20:01:30.502Z,59.21
2022-09-06T20:03:58.371Z,59.46
2022-09-06T20:06:26.238Z,59.48
2022-09-06T20:08:54.818Z,59.79
2022-09-06T20:11:23.301Z,60.10
2022-09-06T20:13:49.937Z,60.20
2022-09-06T20:16:19.306Z,60.04
2022-09-06T20:18:48.026Z,60.19
2022-09-06T20:21:14.868Z,60.49
2022-09-06T20:23:41.708Z,60.41
2022-09-06T20:26:10.195Z,60.68
2022-09-06T20:28:36.722Z,60.65
2022-09-06T20:31:05.694Z,60.62
2022-09-06T20:33:33.005Z,60.95
2022-09-06T20:36:02.896Z,61.00
2022-09-06T20:38:34.435Z,61.07
2022-09-06T20:41:08.646Z,60.90
2022-09-06T20:43:38.869Z,61.05
2022-09-06T20:46:10.612Z,61.59
2022-09-06T20:48:40.930Z,61.58
2022-09-06T20:51:22.889Z,61.64
2022-09-06T20:53:57.877Z,61.51
2022-09-06T20:56:30.587Z,61.80
2022-09-06T20:59:02.004Z,61.83
2022-09-06T21:01:34.799Z,62.17
2022-09-06T21:04:02.860Z,66.62
2022-09-06T21:06:30.629Z,71.15
2022-09-06T21:08:57.358Z,71.47
2022-09-06T21:11:24.101Z,70.93
2022-09-06T21:13:52.738Z,66.72
2022-09-06T21:16:24.288Z,63.36
2022-09-06T21:18:52.846Z,61.89
2022-09-06T21:21:19.769Z,60.45
2022-09-06T21:23:46.326Z,58.27
2022-09-06T21:26:15.285Z,55.33
2022-09-06T21:28:42.058Z,55.21
2022-09-06T21:31:11.401Z,55.33
2022-09-06T21:33:40.777Z,54.75
2022-09-06T21:36:09.828Z,54.77
2022-09-06T21:38:38.505Z,54.89
2022-09-06T21:41:06.577Z,55.25
2022-09-06T21:43:33.113Z,55.32
2022-09-06T21:46:03.979Z,55.70
2022-09-06T21:48:30.750Z,55.93
2022-09-06T21:50:57.424Z,56.97
2022-09-06T21:53:26.040Z,57.22
2022-09-06T21:55:52.542Z,57.69
2022-09-06T21:58:19.282Z,58.91
2022-09-06T22:00:55.014Z,59.40
2022-09-06T22:03:22.414Z,60.42
2022-09-06T22:05:49.739Z,60.34
2022-09-06T22:08:16.515Z,61.45
2022-09-06T22:10:43.320Z,60.70
2022-09-06T22:13:10.059Z,60.91
2022-09-06T22:15:37.824Z,61.43
2022-09-06T22:18:05.687Z,62.48
2022-09-06T22:20:33.863Z,66.94
2022-09-06T22:23:05.618Z,70.93
2022-09-06T22:25:33.282Z,70.89
2022-09-06T22:28:00.460Z,68.49
2022-09-06T22:30:27.167Z,64.01
2022-09-06T22:32:53.805Z,62.91
2022-09-06T22:35:20.443Z,61.79
2022-09-06T22:37:46.976Z,60.85
2022-09-06T22:40:13.582Z,58.90
2022-09-06T22:42:40.383Z,55.48
2022-09-06T22:45:07.913Z,54.20
2022-09-06T22:47:34.546Z,54.35
2022-09-06T22:50:01.289Z,54.22
2022-09-06T22:52:28.026Z,55.00
2022-09-06T22:54:54.530Z,55.60
2022-09-06T22:57:21.132Z,55.72
2022-09-06T22:59:48.181Z,56.86
2022-09-06T23:02:14.989Z,58.25
2022-09-06T23:04:41.555Z,58.53
2022-09-06T23:07:08.671Z,58.04
2022-09-06T23:09:35.168Z,57.93
2022-09-06T23:12:03.108Z,58.26
2022-09-06T23:14:29.818Z,59.30
2022-09-06T23:16:56.270Z,59.18
2022-09-06T23:19:22.989Z,60.32
2022-09-06T23:21:49.514Z,61.40
2022-09-06T23:24:16.255Z,61.47
2022-09-06T23:26:42.891Z,61.42
2022-09-06T23:29:09.835Z,62.00
2022-09-06T23:31:37.232Z,64.12
2022-09-06T23:34:03.926Z,71.08
2022-09-06T23:36:31.002Z,71.29
2022-09-06T23:38:58.122Z,68.49
2022-09-06T23:41:25.165Z,66.07
2022-09-06T23:43:51.804Z,62.59
2022-09-06T23:46:18.669Z,60.35
2022-09-06T23:48:45.487Z,59.11
2022-09-06T23:51:12.256Z,56.84
2022-09-06T23:53:39.478Z,55.61
2022-09-06T23:56:06.626Z,55.31
2022-09-06T23:58:34.183Z,55.82
